createdAt,value
2024-02-13T00:00:21.677Z,7.11
2024-02-13T00:01:53.875Z,7.21
2024-02-13T00:03:27.374Z,7.22
2024-02-13T00:04:59.759Z,7.24
2024-02-13T00:06:33.068Z,7.28
2024-02-13T00:08:07.584Z,7.32
2024-02-13T00:09:41.062Z,7.34
2024-02-13T00:11:15.352Z,7.34
2024-02-13T00:12:48.970Z,7.32
2024-02-13T00:14:21.236Z,7.35
2024-02-13T00:15:55.550Z,7.34
2024-02-13T00:17:30.139Z,7.35
2024-02-13T00:19:03.793Z,7.29
2024-02-13T00:20:37.117Z,7.37
2024-02-13T00:22:13.229Z,7.37
2024-02-13T00:23:48.227Z,7.37
2024-02-13T00:25:20.585Z,7.33
2024-02-13T00:26:53.882Z,7.37
2024-02-13T00:28:27.979Z,7.36
2024-02-13T00:30:03.858Z,7.37
2024-02-13T00:31:38.122Z,7.35
2024-02-13T00:33:10.717Z,7.29
2024-02-13T00:34:46.193Z,7.23
2024-02-13T00:36:18.726Z,7.23
2024-02-13T00:37:51.973Z,7.21
2024-02-13T00:39:25.757Z,7.19
2024-02-13T00:40:59.078Z,7.19
2024-02-13T00:42:31.644Z,7.15
2024-02-13T00:44:05.844Z,7.20
2024-02-13T00:45:38.101Z,7.16
2024-02-13T00:47:11.406Z,7.08
2024-02-13T00:48:44.970Z,7.08
2024-02-13T00:50:18.652Z,7.00
2024-02-13T00:51:51.225Z,7.06
2024-02-13T00:53:24.491Z,7.02
2024-02-13T00:55:00.838Z,6.98
2024-02-13T00:56:33.094Z,6.95
2024-02-13T00:58:06.370Z,6.92
2024-02-13T00:59:40.978Z,6.89
2024-02-13T01:01:14.257Z,6.84
2024-02-13T01:02:47.612Z,6.78
2024-02-13T01:04:19.902Z,6.79
2024-02-13T01:05:54.059Z,6.78
2024-02-13T01:07:26.553Z,6.63
2024-02-13T01:08:59.849Z,6.68
2024-02-13T01:10:33.484Z,6.63
2024-02-13T01:12:07.252Z,6.64
2024-02-13T01:13:39.600Z,6.58
2024-02-13T01:15:16.031Z,6.58
2024-02-13T01:16:48.311Z,6.61
2024-02-13T01:18:21.722Z,6.65
2024-02-13T01:19:53.951Z,6.68
2024-02-13T01:21:27.228Z,6.67
2024-02-13T01:22:59.700Z,6.74
2024-02-13T01:24:33.860Z,6.76
2024-02-13T01:26:07.577Z,6.79
2024-02-13T01:27:41.331Z,6.82
2024-02-13T01:29:15.147Z,6.85
2024-02-13T01:30:47.558Z,6.86
2024-02-13T01:32:21.235Z,6.89
2024-02-13T01:33:53.496Z,6.88
2024-02-13T01:35:27.200Z,6.86
2024-02-13T01:36:59.480Z,6.85
2024-02-13T01:38:32.848Z,6.81
2024-02-13T01:40:07.165Z,6.78
2024-02-13T01:41:42.528Z,6.67
2024-02-13T01:43:15.862Z,6.31
2024-02-13T01:44:49.394Z,6.55
2024-02-13T01:46:22.072Z,6.51
2024-02-13T01:47:56.690Z,6.50
2024-02-13T01:49:30.673Z,6.51
2024-02-13T01:51:05.585Z,6.54
2024-02-13T01:52:40.429Z,6.45
2024-02-13T01:54:13.417Z,6.49
2024-02-13T01:55:48.592Z,6.55
2024-02-13T01:57:24.385Z,6.59
2024-02-13T01:58:58.854Z,6.63
2024-02-13T02:00:34.125Z,6.67
2024-02-13T02:02:10.085Z,6.64
2024-02-13T02:03:45.247Z,6.60
2024-02-13T02:05:18.685Z,6.54
2024-02-13T02:06:51.070Z,6.54
2024-02-13T02:08:24.557Z,6.53
2024-02-13T02:09:59.565Z,6.57
2024-02-13T02:11:33.039Z,6.56
2024-02-13T02:13:06.798Z,6.53
2024-02-13T02:14:41.048Z,6.52
2024-02-13T02:16:13.499Z,6.53
2024-02-13T02:17:53.524Z,6.54
2024-02-13T02:19:25.940Z,6.59
2024-02-13T02:20:59.398Z,6.58
2024-02-13T02:22:31.658Z,6.59
2024-02-13T02:24:07.234Z,6.67
2024-02-13T02:25:40.962Z,6.75
2024-02-13T02:27:14.473Z,6.79
2024-02-13T02:28:48.222Z,6.85
2024-02-13T02:30:20.884Z,6.88
2024-02-13T02:31:54.219Z,6.90
2024-02-13T02:33:27.027Z,6.88
2024-02-13T02:35:01.924Z,7.01
2024-02-13T02:36:34.214Z,7.05
2024-02-13T02:38:07.658Z,7.08
2024-02-13T02:39:40.133Z,7.13
2024-02-13T02:41:15.967Z,7.11
2024-02-13T02:42:49.247Z,7.01
2024-02-13T02:44:22.969Z,6.92
2024-02-13T02:45:55.705Z,6.93
2024-02-13T02:47:28.986Z,6.94
2024-02-13T02:49:01.820Z,6.96
2024-02-13T02:50:35.929Z,6.96
2024-02-13T02:52:08.755Z,6.95
2024-02-13T02:53:42.318Z,6.90
2024-02-13T02:55:14.987Z,6.82
2024-02-13T02:56:49.627Z,6.88
2024-02-13T02:58:22.423Z,6.91
2024-02-13T02:59:55.959Z,6.85
2024-02-13T03:01:28.661Z,6.84
2024-02-13T03:03:02.147Z,6.79
2024-02-13T03:04:35.236Z,6.87
2024-02-13T03:06:08.828Z,6.95
2024-02-13T03:07:41.093Z,6.99
2024-02-13T03:09:14.327Z,6.93
2024-02-13T03:10:47.255Z,7.03
2024-02-13T03:12:22.733Z,7.07
2024-02-13T03:13:55.013Z,7.17
2024-02-13T03:15:28.439Z,7.23
2024-02-13T03:17:01.183Z,7.25
2024-02-13T03:18:35.428Z,7.30
2024-02-13T03:20:12.170Z,7.36
2024-02-13T03:21:46.045Z,7.36
2024-02-13T03:23:18.908Z,7.36
2024-02-13T03:24:52.191Z,7.46
2024-02-13T03:26:25.205Z,7.55
2024-02-13T03:27:59.902Z,7.57
2024-02-13T03:29:32.898Z,7.50
2024-02-13T03:31:06.297Z,7.49
2024-02-13T03:32:38.926Z,7.40
2024-02-13T03:34:12.284Z,7.38
2024-02-13T03:35:44.845Z,7.41
2024-02-13T03:37:18.099Z,7.41
2024-02-13T03:38:51.256Z,7.51
2024-02-13T03:40:24.527Z,7.55
2024-02-13T03:41:57.123Z,7.57
2024-02-13T03:43:31.768Z,7.55
2024-02-13T03:45:05.336Z,7.54
2024-02-13T03:46:38.732Z,7.60
2024-02-13T03:48:13.081Z,7.65
2024-02-13T03:49:45.410Z,7.65
2024-02-13T03:51:18.757Z,7.61
2024-02-13T03:52:52.422Z,7.58
2024-02-13T03:54:25.077Z,7.61
2024-02-13T03:55:58.401Z,7.65
2024-02-13T03:57:31.676Z,7.69
2024-02-13T03:59:06.433Z,7.69
2024-02-13T04:00:41.810Z,7.77
2024-02-13T04:02:15.139Z,7.81
2024-02-13T04:03:47.585Z,7.84
2024-02-13T04:05:21.804Z,7.88
2024-02-13T04:06:55.446Z,7.94
2024-02-13T04:08:28.611Z,7.93
2024-02-13T04:10:01.927Z,7.96
2024-02-13T04:11:34.798Z,8.00
2024-02-13T04:13:08.938Z,8.01
2024-02-13T04:14:42.616Z,8.10
2024-02-13T04:16:16.513Z,8.18
2024-02-13T04:17:51.471Z,8.26
2024-02-13T04:19:24.399Z,8.33
2024-02-13T04:20:57.726Z,8.37
2024-02-13T04:22:30.048Z,8.47
2024-02-13T04:24:04.510Z,8.53
2024-02-13T04:25:37.308Z,8.64
2024-02-13T04:27:10.593Z,8.68
2024-02-13T04:28:44.336Z,8.76
2024-02-13T04:30:19.840Z,8.81
2024-02-13T04:31:53.548Z,8.84
2024-02-13T04:33:26.248Z,8.85
2024-02-13T04:35:04.116Z,8.92
2024-02-13T04:36:39.593Z,8.93
2024-02-13T04:38:11.956Z,8.99
2024-02-13T04:39:45.229Z,9.03
2024-02-13T04:41:19.467Z,9.07
2024-02-13T04:42:52.803Z,9.09
2024-02-13T04:44:26.091Z,9.12
2024-02-13T04:46:00.428Z,9.13
2024-02-13T04:47:33.946Z,9.13
2024-02-13T04:49:06.936Z,9.16
2024-02-13T04:50:40.871Z,9.16
2024-02-13T04:52:13.832Z,9.20
2024-02-13T04:53:47.827Z,9.15
2024-02-13T04:55:21.030Z,9.26
2024-02-13T04:56:56.227Z,9.24
2024-02-13T04:58:31.905Z,9.29
2024-02-13T05:00:15.296Z,9.30
2024-02-13T05:01:49.865Z,9.34
2024-02-13T05:03:27.785Z,9.38
2024-02-13T05:05:18.545Z,9.40
2024-02-13T05:07:09.261Z,9.42
2024-02-13T05:08:45.019Z,9.42
2024-02-13T05:10:17.851Z,9.43
2024-02-13T05:11:51.171Z,9.48
2024-02-13T05:13:23.437Z,9.51
2024-02-13T05:14:58.826Z,9.50
2024-02-13T05:16:32.765Z,9.47
2024-02-13T05:18:08.024Z,9.46
2024-02-13T05:19:40.476Z,9.46
2024-02-13T05:21:15.176Z,9.46
2024-02-13T05:22:47.590Z,9.46
2024-02-13T05:24:20.893Z,9.49
2024-02-13T05:25:53.243Z,9.51
2024-02-13T05:27:26.572Z,9.50
2024-02-13T05:28:59.161Z,9.48
2024-02-13T05:30:33.773Z,9.47
2024-02-13T05:32:06.721Z,9.50
2024-02-13T05:33:41.879Z,9.52
2024-02-13T05:35:14.385Z,9.53
2024-02-13T05:36:47.985Z,9.57
2024-02-13T05:38:22.732Z,9.56
2024-02-13T05:39:57.256Z,9.53
2024-02-13T05:41:29.594Z,9.56
2024-02-13T05:43:03.059Z,9.57
2024-02-13T05:44:35.455Z,9.58
2024-02-13T05:46:08.698Z,9.61
2024-02-13T05:47:43.232Z,9.60
2024-02-13T05:49:17.107Z,9.62
2024-02-13T05:50:52.317Z,9.56
2024-02-13T05:52:24.620Z,9.64
2024-02-13T05:53:59.388Z,9.63
2024-02-13T05:55:31.948Z,9.49
2024-02-13T05:57:06.955Z,9.54
2024-02-13T05:58:39.769Z,9.65
2024-02-13T06:00:16.398Z,9.68
2024-02-13T06:01:50.409Z,9.67
2024-02-13T06:03:23.652Z,9.65
2024-02-13T06:04:58.376Z,9.65
2024-02-13T06:06:31.300Z,9.67
2024-02-13T06:08:05.420Z,9.67
2024-02-13T06:09:39.335Z,9.68
2024-02-13T06:11:12.840Z,9.67
2024-02-13T06:12:46.802Z,9.68
2024-02-13T06:14:21.174Z,9.58
2024-02-13T06:15:53.915Z,9.73
2024-02-13T06:17:27.578Z,9.75
2024-02-13T06:18:59.917Z,9.76
2024-02-13T06:20:34.568Z,9.77
2024-02-13T06:22:06.773Z,9.81
2024-02-13T06:23:41.867Z,9.84
2024-02-13T06:25:16.128Z,9.88
2024-02-13T06:26:51.238Z,9.87
2024-02-13T06:28:25.256Z,9.95
2024-02-13T06:29:57.494Z,9.99
2024-02-13T06:31:33.725Z,9.91
2024-02-13T06:33:07.316Z,10.05
2024-02-13T06:34:40.822Z,10.05
2024-02-13T06:36:15.674Z,10.08
2024-02-13T06:37:48.048Z,10.10
2024-02-13T06:39:24.485Z,10.14
2024-02-13T06:40:59.087Z,10.17
2024-02-13T06:42:33.018Z,10.19
2024-02-13T06:44:07.086Z,10.18
2024-02-13T06:45:40.838Z,10.20
2024-02-13T06:47:13.458Z,10.26
2024-02-13T06:48:48.797Z,10.22
2024-02-13T06:50:21.462Z,10.32
2024-02-13T06:51:56.742Z,10.38
2024-02-13T06:53:30.751Z,10.35
2024-02-13T06:55:03.623Z,10.36
2024-02-13T06:56:39.619Z,10.29
2024-02-13T06:58:12.320Z,10.35
2024-02-13T06:59:45.774Z,10.38
2024-02-13T07:01:22.125Z,10.36
2024-02-13T07:02:56.146Z,10.39
2024-02-13T07:04:30.716Z,10.45
2024-02-13T07:06:03.511Z,10.44
2024-02-13T07:07:46.213Z,10.43
2024-02-13T07:09:20.605Z,10.39
2024-02-13T07:10:54.925Z,10.44
2024-02-13T07:12:27.357Z,10.47
2024-02-13T07:14:01.451Z,10.41
2024-02-13T07:15:36.488Z,10.44
2024-02-13T07:17:10.533Z,10.45
2024-02-13T07:18:44.458Z,10.43
2024-02-13T07:20:17.094Z,10.32
2024-02-13T07:21:50.789Z,10.26
2024-02-13T07:23:24.557Z,10.39
2024-02-13T07:25:00.200Z,10.17
2024-02-13T07:26:32.811Z,10.42
2024-02-13T07:28:06.948Z,10.46
2024-02-13T07:29:41.608Z,10.45
2024-02-13T07:31:17.323Z,10.48
2024-02-13T07:32:50.920Z,10.53
2024-02-13T07:34:23.382Z,10.59
2024-02-13T07:35:56.751Z,10.52
2024-02-13T07:37:29.136Z,10.67
2024-02-13T07:39:03.933Z,10.72
2024-02-13T07:40:36.388Z,10.76
2024-02-13T07:42:11.719Z,10.78
2024-02-13T07:43:44.234Z,10.77
2024-02-13T07:45:17.621Z,10.78
2024-02-13T07:46:51.349Z,10.80
2024-02-13T07:48:25.437Z,10.78
2024-02-13T07:49:59.689Z,10.84
2024-02-13T07:51:33.599Z,10.83
2024-02-13T07:53:08.102Z,10.92
2024-02-13T07:54:41.662Z,11.03
2024-02-13T07:56:15.158Z,11.03
2024-02-13T07:57:51.636Z,11.17
2024-02-13T07:59:24.847Z,11.16
2024-02-13T08:00:57.188Z,11.27
2024-02-13T08:02:30.580Z,11.35
2024-02-13T08:04:03.219Z,11.32
2024-02-13T08:05:38.439Z,11.48
2024-02-13T08:07:10.897Z,11.66
2024-02-13T08:08:44.331Z,11.81
2024-02-13T08:10:18.073Z,11.95
2024-02-13T08:11:52.973Z,12.04
2024-02-13T08:13:25.477Z,12.11
2024-02-13T08:16:31.261Z,12.29
2024-02-13T08:18:05.005Z,12.25
2024-02-13T08:19:37.984Z,12.16
2024-02-13T08:21:11.396Z,12.16
2024-02-13T08:22:43.783Z,12.12
2024-02-13T08:24:18.110Z,12.03
2024-02-13T08:25:52.791Z,12.02
2024-02-13T08:27:26.989Z,11.97
2024-02-13T08:28:59.205Z,11.99
2024-02-13T08:30:33.298Z,11.95
2024-02-13T08:32:07.866Z,11.98
2024-02-13T08:33:42.173Z,12.01
2024-02-13T08:35:15.145Z,11.99
2024-02-13T08:36:49.871Z,11.99
2024-02-13T08:38:22.607Z,11.98
2024-02-13T08:39:56.165Z,11.95
2024-02-13T08:41:29.998Z,11.92
2024-02-13T08:43:03.467Z,11.90
2024-02-13T08:44:36.816Z,11.98
2024-02-13T08:46:09.344Z,11.98
2024-02-13T08:47:42.872Z,12.04
2024-02-13T08:49:16.543Z,12.06
2024-02-13T08:50:50.426Z,12.07
2024-02-13T08:52:23.886Z,12.07
2024-02-13T08:53:57.926Z,12.00
2024-02-13T08:55:31.418Z,12.03
2024-02-13T08:57:05.576Z,12.02
2024-02-13T08:58:38.934Z,11.95
2024-02-13T09:00:12.971Z,11.96
2024-02-13T09:01:46.455Z,12.06
2024-02-13T09:03:18.747Z,12.12
2024-02-13T09:04:52.106Z,12.16
2024-02-13T09:06:24.621Z,12.15
2024-02-13T09:07:57.900Z,12.15
2024-02-13T09:09:34.009Z,12.23
2024-02-13T09:11:07.488Z,12.20
2024-02-13T09:12:42.982Z,12.23
2024-02-13T09:14:16.552Z,12.14
2024-02-13T09:15:48.770Z,12.22
2024-02-13T09:17:22.463Z,12.15
2024-02-13T09:18:57.573Z,12.25
2024-02-13T09:20:32.100Z,12.37
2024-02-13T09:22:04.685Z,12.58
2024-02-13T09:23:39.266Z,12.66
2024-02-13T09:25:13.999Z,12.61
2024-02-13T09:26:47.792Z,12.47
2024-02-13T09:28:21.633Z,12.48
2024-02-13T09:29:55.129Z,12.45
2024-02-13T09:31:27.410Z,12.47
2024-02-13T09:33:00.962Z,12.50
2024-02-13T09:34:34.838Z,12.54
2024-02-13T09:36:09.479Z,12.61
2024-02-13T09:37:44.566Z,12.62
2024-02-13T09:39:18.572Z,12.55
2024-02-13T09:40:51.667Z,12.59
2024-02-13T09:42:26.295Z,12.51
2024-02-13T09:44:03.780Z,12.52
2024-02-13T09:45:41.165Z,12.47
2024-02-13T09:47:15.330Z,12.61
2024-02-13T09:48:49.877Z,12.65
2024-02-13T09:50:28.314Z,12.69
2024-02-13T09:52:05.323Z,12.67
2024-02-13T09:53:41.619Z,12.66
2024-02-13T09:55:16.366Z,12.71
2024-02-13T09:56:52.346Z,12.73
2024-02-13T09:58:27.802Z,12.66
2024-02-13T10:00:02.784Z,12.52
2024-02-13T10:01:38.992Z,12.49
2024-02-13T10:03:13.338Z,12.47
2024-02-13T10:04:47.174Z,12.43
2024-02-13T10:06:19.713Z,12.39
2024-02-13T10:07:53.135Z,12.32
2024-02-13T10:09:28.435Z,12.22
2024-02-13T10:11:03.446Z,12.20
2024-02-13T10:12:37.052Z,12.21
2024-02-13T10:14:22.863Z,12.13
2024-02-13T10:15:57.150Z,12.20
2024-02-13T10:17:30.562Z,12.18
2024-02-13T10:19:06.523Z,12.18
2024-02-13T10:20:39.638Z,12.21
2024-02-13T10:22:13.255Z,12.17
2024-02-13T10:23:46.832Z,12.20
2024-02-13T10:25:25.159Z,12.24
2024-02-13T10:27:00.653Z,12.21
2024-02-13T10:28:33.205Z,12.19
2024-02-13T10:30:07.898Z,12.23
2024-02-13T10:31:43.582Z,12.27
2024-02-13T10:33:20.742Z,12.24
2024-02-13T10:34:53.544Z,12.22
2024-02-13T10:36:27.224Z,12.20
2024-02-13T10:38:00.876Z,12.22
2024-02-13T10:39:35.124Z,12.17
2024-02-13T10:41:12.668Z,12.10
2024-02-13T10:42:45.489Z,12.01
2024-02-13T10:44:23.190Z,11.95
2024-02-13T10:45:59.877Z,11.86
2024-02-13T10:47:39.371Z,11.78
2024-02-13T10:49:21.711Z,11.76
2024-02-13T10:50:59.170Z,11.78
2024-02-13T10:52:34.036Z,11.77
2024-02-13T10:54:08.619Z,11.77
2024-02-13T10:55:44.273Z,11.79
2024-02-13T10:57:18.516Z,11.87
2024-02-13T10:58:51.941Z,11.87
2024-02-13T11:00:26.549Z,11.93
2024-02-13T11:02:01.697Z,11.97
2024-02-13T11:03:39.592Z,11.97
2024-02-13T11:05:12.081Z,11.95
2024-02-13T11:06:45.779Z,11.94
2024-02-13T11:08:18.258Z,11.81
2024-02-13T11:09:54.083Z,11.67
2024-02-13T11:11:27.212Z,11.55
2024-02-13T11:13:05.363Z,11.62
2024-02-13T11:14:38.023Z,11.42
2024-02-13T11:16:14.879Z,11.62
2024-02-13T11:17:49.216Z,11.69
2024-02-13T11:19:23.848Z,11.71
2024-02-13T11:21:02.588Z,11.74
2024-02-13T11:22:38.233Z,11.71
2024-02-13T11:24:13.661Z,11.57
2024-02-13T11:25:58.071Z,11.49
2024-02-13T11:27:33.794Z,11.44
2024-02-13T11:29:12.970Z,11.47
2024-02-13T11:30:46.505Z,11.42
2024-02-13T11:32:26.852Z,11.34
2024-02-13T11:34:07.647Z,11.39
2024-02-13T11:35:48.630Z,11.37
2024-02-13T11:37:28.364Z,11.29
2024-02-13T11:39:04.399Z,11.32
2024-02-13T11:40:40.590Z,11.16
2024-02-13T11:42:19.847Z,11.11
2024-02-13T11:43:53.374Z,11.11
2024-02-13T11:45:27.954Z,11.06
2024-02-13T11:47:01.190Z,11.04
2024-02-13T11:48:35.371Z,11.04
2024-02-13T11:50:09.805Z,11.06
2024-02-13T11:51:44.662Z,11.00
2024-02-13T11:53:19.227Z,10.93
2024-02-13T11:54:53.660Z,10.90
2024-02-13T11:56:26.216Z,10.99
2024-02-13T11:58:01.422Z,10.92
2024-02-13T11:59:34.334Z,10.87
2024-02-13T12:01:07.889Z,10.85
2024-02-13T12:02:41.219Z,10.89
2024-02-13T12:04:14.703Z,10.88
2024-02-13T12:05:47.595Z,10.91
2024-02-13T12:07:23.236Z,10.94
2024-02-13T12:08:59.937Z,10.84
2024-02-13T12:10:33.690Z,10.72
2024-02-13T12:12:09.880Z,10.70
2024-02-13T12:13:43.357Z,10.56
2024-02-13T12:15:21.773Z,10.56
2024-02-13T12:16:55.482Z,10.58
2024-02-13T12:18:29.173Z,10.56
2024-02-13T12:20:02.836Z,10.56
2024-02-13T12:21:36.477Z,10.52
2024-02-13T12:23:13.602Z,10.53
2024-02-13T12:24:48.659Z,10.48
2024-02-13T12:26:21.136Z,10.46
2024-02-13T12:27:55.520Z,10.52
2024-02-13T12:29:28.156Z,10.59
2024-02-13T12:31:03.923Z,10.53
2024-02-13T12:32:39.744Z,10.59
2024-02-13T12:34:18.251Z,10.62
2024-02-13T12:36:02.391Z,10.67
2024-02-13T12:37:35.564Z,10.70
2024-02-13T12:39:18.144Z,10.71
2024-02-13T12:40:50.749Z,10.62
2024-02-13T12:42:25.272Z,10.47
2024-02-13T12:43:58.579Z,10.38
2024-02-13T12:45:40.128Z,10.31
2024-02-13T12:47:15.006Z,10.33
2024-02-13T12:48:51.233Z,10.36
2024-02-13T12:50:25.615Z,10.36
2024-02-13T12:51:59.325Z,10.29
2024-02-13T12:53:34.551Z,10.16
2024-02-13T12:55:13.660Z,10.05
2024-02-13T12:56:46.528Z,10.05
2024-02-13T12:58:22.767Z,10.01
2024-02-13T12:59:57.140Z,10.09
2024-02-13T13:01:32.498Z,10.05
2024-02-13T13:03:05.932Z,9.83
2024-02-13T13:04:39.443Z,9.71
2024-02-13T13:06:13.135Z,9.54
2024-02-13T13:07:50.664Z,9.48
2024-02-13T13:09:28.596Z,9.38
2024-02-13T13:11:05.237Z,9.22
2024-02-13T13:12:38.317Z,9.00
2024-02-13T13:14:13.193Z,8.95
2024-02-13T13:15:47.474Z,8.93
2024-02-13T13:17:23.181Z,8.91
2024-02-13T13:18:56.313Z,8.90
2024-02-13T13:20:29.977Z,8.86
2024-02-13T13:22:04.103Z,8.88
2024-02-13T13:23:39.422Z,8.86
2024-02-13T13:25:15.140Z,8.88
2024-02-13T13:26:51.823Z,8.93
2024-02-13T13:28:27.506Z,8.88
2024-02-13T13:30:03.455Z,8.86
2024-02-13T13:31:40.012Z,8.94
2024-02-13T13:33:12.849Z,9.02
2024-02-13T13:34:49.843Z,8.98
2024-02-13T13:36:22.806Z,9.01
2024-02-13T13:37:56.054Z,9.06
2024-02-13T13:39:31.250Z,9.12
2024-02-13T13:41:04.871Z,9.10
2024-02-13T13:42:44.455Z,9.16
2024-02-13T13:44:19.587Z,9.14
2024-02-13T13:45:54.169Z,9.11
2024-02-13T13:47:27.690Z,9.22
2024-02-13T13:49:02.273Z,9.27
2024-02-13T13:50:34.820Z,9.30
2024-02-13T13:52:08.636Z,9.37
2024-02-13T13:53:41.481Z,9.39
2024-02-13T13:55:15.752Z,9.42
2024-02-13T13:56:48.425Z,9.47
2024-02-13T13:58:24.323Z,9.46
2024-02-13T13:59:58.574Z,9.45
2024-02-13T14:01:32.515Z,9.49
2024-02-13T14:03:07.695Z,9.47
2024-02-13T14:04:40.942Z,9.44
2024-02-13T14:06:14.806Z,9.50
2024-02-13T14:07:47.193Z,9.55
2024-02-13T14:09:21.652Z,9.59
2024-02-13T14:10:56.636Z,9.68
2024-02-13T14:12:30.472Z,9.72
2024-02-13T14:14:04.566Z,9.76
2024-02-13T14:15:39.840Z,9.74
2024-02-13T14:17:12.831Z,9.66
2024-02-13T14:18:46.239Z,9.65
2024-02-13T14:20:18.922Z,9.69
2024-02-13T14:21:52.205Z,9.67
2024-02-13T14:23:24.811Z,9.57
2024-02-13T14:24:58.256Z,9.58
2024-02-13T14:26:35.557Z,9.60
2024-02-13T14:28:10.996Z,9.61
2024-02-13T14:29:45.052Z,9.59
2024-02-13T14:31:18.831Z,9.58
2024-02-13T14:32:53.014Z,9.63
2024-02-13T14:34:28.278Z,9.61
2024-02-13T14:36:04.610Z,9.53
2024-02-13T14:37:38.061Z,9.51
2024-02-13T14:39:18.114Z,9.47
2024-02-13T14:40:53.216Z,9.46
2024-02-13T14:42:26.763Z,9.43
2024-02-13T14:43:59.192Z,9.41
2024-02-13T14:45:34.342Z,9.29
2024-02-13T14:47:09.113Z,9.32
2024-02-13T14:48:43.606Z,9.36
2024-02-13T14:50:18.811Z,9.30
2024-02-13T14:51:52.393Z,9.31
2024-02-13T14:53:25.373Z,9.26
2024-02-13T14:54:58.727Z,9.33
2024-02-13T14:56:31.254Z,9.27
2024-02-13T14:58:14.643Z,9.27
2024-02-13T14:59:56.292Z,9.26
2024-02-13T15:01:31.083Z,9.17
2024-02-13T15:03:05.735Z,9.11
2024-02-13T15:04:38.607Z,9.04
2024-02-13T15:06:12.105Z,9.06
2024-02-13T15:07:46.078Z,9.04
2024-02-13T15:09:20.113Z,9.04
2024-02-13T15:10:53.384Z,9.03
2024-02-13T15:12:27.088Z,9.04
2024-02-13T15:14:00.653Z,9.01
2024-02-13T15:15:34.917Z,9.00
2024-02-13T15:17:11.881Z,8.99
2024-02-13T15:18:45.691Z,9.01
2024-02-13T15:20:18.146Z,9.01
2024-02-13T15:21:52.776Z,8.92
2024-02-13T15:23:29.126Z,8.98
2024-02-13T15:25:04.695Z,8.87
2024-02-13T15:26:36.913Z,8.87
2024-02-13T15:28:10.515Z,8.86
2024-02-13T15:29:44.540Z,8.79
2024-02-13T15:31:17.016Z,8.80
2024-02-13T15:32:51.981Z,8.79
2024-02-13T15:34:24.576Z,8.72
2024-02-13T15:36:06.658Z,8.74
2024-02-13T15:37:58.129Z,8.77
2024-02-13T15:39:49.277Z,8.79
2024-02-13T15:41:40.081Z,8.78
2024-02-13T15:43:30.923Z,8.80
2024-02-13T15:45:22.069Z,8.67
2024-02-13T15:47:05.074Z,8.80
2024-02-13T15:48:39.388Z,8.85
2024-02-13T15:50:13.168Z,8.87
2024-02-13T15:51:45.651Z,8.81
2024-02-13T15:53:20.055Z,8.74
2024-02-13T15:54:53.604Z,8.75
2024-02-13T15:56:26.041Z,8.79
2024-02-13T15:57:59.534Z,8.79
2024-02-13T15:59:31.926Z,8.83
2024-02-13T16:01:05.519Z,8.79
2024-02-13T16:02:38.611Z,8.90
2024-02-13T16:04:13.381Z,8.93
2024-02-13T16:05:48.349Z,8.96
2024-02-13T16:07:21.716Z,9.01
2024-02-13T16:08:55.247Z,9.02
2024-02-13T16:10:28.062Z,9.04
2024-02-13T16:12:02.094Z,9.08
2024-02-13T16:13:34.546Z,9.09
2024-02-13T16:15:09.917Z,9.13
2024-02-13T16:16:42.604Z,9.14
2024-02-13T16:18:15.949Z,9.07
2024-02-13T16:19:51.028Z,9.10
2024-02-13T16:21:24.091Z,9.09
2024-02-13T16:22:57.364Z,9.06
2024-02-13T16:24:29.558Z,9.10
2024-02-13T16:26:03.747Z,9.12
2024-02-13T16:27:36.461Z,9.15
2024-02-13T16:29:09.681Z,9.05
2024-02-13T16:30:45.711Z,9.08
2024-02-13T16:32:28.820Z,9.11
2024-02-13T16:34:09.668Z,9.15
2024-02-13T16:35:43.649Z,9.18
2024-02-13T16:37:16.953Z,9.21
2024-02-13T16:38:49.546Z,9.24
2024-02-13T16:40:23.061Z,9.27
2024-02-13T16:41:55.466Z,9.25
2024-02-13T16:43:31.190Z,9.26
2024-02-13T16:45:03.829Z,9.19
2024-02-13T16:46:37.262Z,9.18
2024-02-13T16:48:12.331Z,9.17
2024-02-13T16:49:45.679Z,9.12
2024-02-13T16:51:22.590Z,9.12
2024-02-13T16:52:55.412Z,9.08
2024-02-13T16:54:28.641Z,9.13
2024-02-13T16:56:01.778Z,9.13
2024-02-13T16:57:41.297Z,9.17
2024-02-13T16:59:15.734Z,9.16
2024-02-13T17:00:52.906Z,9.21
2024-02-13T17:02:25.420Z,9.18
2024-02-13T17:03:59.158Z,9.20
2024-02-13T17:05:31.601Z,9.20
2024-02-13T17:07:06.808Z,9.16
2024-02-13T17:08:39.299Z,9.15
2024-02-13T17:10:14.129Z,9.11
2024-02-13T17:11:46.354Z,9.08
2024-02-13T17:13:19.611Z,9.05
2024-02-13T17:14:52.946Z,9.04
2024-02-13T17:16:25.618Z,9.04
2024-02-13T17:17:59.652Z,9.08
2024-02-13T17:19:32.120Z,9.08
2024-02-13T17:21:06.217Z,9.07
2024-02-13T17:22:40.498Z,9.03
2024-02-13T17:24:13.938Z,8.89
2024-02-13T17:25:46.985Z,8.92
2024-02-13T17:27:20.225Z,8.88
2024-02-13T17:28:53.690Z,8.86
2024-02-13T17:30:25.917Z,8.85
2024-02-13T17:31:59.144Z,8.81
2024-02-13T17:33:31.491Z,8.75
2024-02-13T17:35:06.347Z,8.76
2024-02-13T17:36:38.566Z,8.76
2024-02-13T17:38:13.777Z,8.78
2024-02-13T17:39:46.414Z,8.52
2024-02-13T17:41:20.220Z,8.67
2024-02-13T17:42:52.476Z,8.67
2024-02-13T17:44:25.833Z,8.61
2024-02-13T17:45:58.158Z,8.60
2024-02-13T17:47:31.598Z,8.56
2024-02-13T17:49:04.666Z,8.53
2024-02-13T17:50:38.494Z,8.50
2024-02-13T17:52:10.971Z,8.49
2024-02-13T17:53:47.184Z,8.49
2024-02-13T17:55:21.651Z,8.48
2024-02-13T17:56:54.984Z,8.50
2024-02-13T17:58:27.314Z,8.51
2024-02-13T18:00:00.993Z,8.46
2024-02-13T18:01:33.684Z,8.37
2024-02-13T18:03:07.953Z,8.49
2024-02-13T18:04:40.644Z,8.51
2024-02-13T18:06:15.823Z,8.52
2024-02-13T18:07:48.188Z,8.52
2024-02-13T18:09:22.869Z,8.51
2024-02-13T18:10:55.023Z,8.46
2024-02-13T18:12:28.359Z,8.38
2024-02-13T18:14:00.883Z,8.33
2024-02-13T18:15:34.428Z,8.37
2024-02-13T18:17:09.405Z,8.36
2024-02-13T18:18:42.247Z,8.34
2024-02-13T18:20:17.064Z,8.33
2024-02-13T18:21:50.754Z,8.32
2024-02-13T18:23:24.460Z,8.22
2024-02-13T18:24:58.165Z,8.08
2024-02-13T18:26:31.505Z,8.03
2024-02-13T18:28:04.759Z,7.99
2024-02-13T18:29:38.349Z,7.99
2024-02-13T18:31:11.863Z,7.96
2024-02-13T18:32:44.570Z,7.97
2024-02-13T18:34:18.523Z,7.93
2024-02-13T18:35:50.967Z,7.89
2024-02-13T18:37:24.322Z,7.87
2024-02-13T18:38:57.222Z,7.88
2024-02-13T18:40:32.502Z,7.91
2024-02-13T18:42:05.042Z,7.86
2024-02-13T18:43:38.836Z,7.82
2024-02-13T18:45:11.462Z,7.86
2024-02-13T18:46:46.687Z,7.90
2024-02-13T18:48:19.812Z,7.87
2024-02-13T18:49:53.811Z,7.95
2024-02-13T18:51:26.111Z,7.92
2024-02-13T18:52:59.515Z,7.91
2024-02-13T18:54:31.754Z,7.92
2024-02-13T18:56:07.494Z,7.91
2024-02-13T18:57:41.673Z,7.85
2024-02-13T18:59:14.157Z,7.90
2024-02-13T19:00:47.557Z,7.87
2024-02-13T19:02:21.299Z,7.88
2024-02-13T19:03:55.344Z,7.88
2024-02-13T19:05:28.252Z,7.88
2024-02-13T19:07:02.090Z,7.86
2024-02-13T19:08:36.449Z,7.84
2024-02-13T19:10:11.017Z,7.86
2024-02-13T19:11:44.699Z,7.86
2024-02-13T19:13:17.981Z,7.86
2024-02-13T19:14:50.467Z,7.88
2024-02-13T19:16:23.665Z,7.86
2024-02-13T19:17:55.957Z,7.87
2024-02-13T19:19:29.411Z,7.77
2024-02-13T19:21:01.901Z,7.73
2024-02-13T19:22:35.670Z,7.73
2024-02-13T19:24:08.515Z,7.71
2024-02-13T19:25:42.276Z,7.71
2024-02-13T19:27:16.522Z,7.68
2024-02-13T19:28:49.882Z,7.64
2024-02-13T19:30:22.377Z,7.65
2024-02-13T19:31:55.596Z,7.66
2024-02-13T19:33:28.150Z,7.66
2024-02-13T19:35:01.581Z,7.70
2024-02-13T19:36:33.934Z,7.70
2024-02-13T19:38:10.294Z,7.62
2024-02-13T19:39:44.199Z,7.68
2024-02-13T19:41:16.526Z,7.63
2024-02-13T19:42:51.268Z,7.49
2024-02-13T19:44:24.564Z,7.57
2024-02-13T19:46:00.199Z,7.54
2024-02-13T19:47:34.547Z,7.50
2024-02-13T19:49:07.805Z,7.47
2024-02-13T19:50:41.178Z,7.44
2024-02-13T19:52:13.964Z,7.48
2024-02-13T19:53:48.020Z,7.47
2024-02-13T19:55:20.508Z,7.58
2024-02-13T19:56:53.874Z,7.59
2024-02-13T19:58:27.577Z,7.64
2024-02-13T20:00:03.823Z,7.65
2024-02-13T20:01:37.600Z,7.64
2024-02-13T20:03:12.928Z,7.67
2024-02-13T20:04:45.441Z,7.63
2024-02-13T20:06:18.861Z,7.62
2024-02-13T20:07:51.442Z,7.66
2024-02-13T20:09:26.194Z,7.66
2024-02-13T20:10:59.067Z,7.71
2024-02-13T20:12:33.467Z,7.69
2024-02-13T20:14:08.266Z,7.70
2024-02-13T20:15:40.488Z,7.74
2024-02-13T20:17:13.727Z,7.74
2024-02-13T20:18:47.527Z,7.76
2024-02-13T20:20:20.691Z,7.60
2024-02-13T20:21:54.374Z,7.75
2024-02-13T20:23:26.555Z,7.76
2024-02-13T20:24:59.928Z,7.79
2024-02-13T20:26:32.369Z,7.78
2024-02-13T20:28:07.139Z,7.83
2024-02-13T20:29:40.845Z,7.83
2024-02-13T20:31:14.150Z,7.84
2024-02-13T20:32:49.201Z,7.74
2024-02-13T20:34:24.149Z,7.84
2024-02-13T20:35:58.872Z,7.81
2024-02-13T20:37:32.174Z,7.90
2024-02-13T20:39:09.871Z,7.89
2024-02-13T20:40:43.274Z,7.88
2024-02-13T20:42:16.550Z,7.80
2024-02-13T20:43:48.826Z,7.86